sensor_id;sensor_type;location;lat;lon;timestamp;pressure;altitude;pressure_sealevel;temperature;humidity
21728;BME280;11026;50.560;17.852;2022-09-27T00:02:05;98225.63;;;8.79;100.00
21728;BME280;11026;50.560;17.852;2022-09-27T00:04:35;98221.94;;;8.67;100.00
21728;BME280;11026;50.560;17.852;2022-09-27T00:07:03;98227.97;;;8.53;100.00
21728;BME280;11026;50.560;17.852;2022-09-27T00:09:32;98216.91;;;8.62;100.00
21728;BME280;11026;50.560;17.852;2022-09-27T00:12:09;98219.31;;;8.67;100.00
21728;BME280;11026;50.560;17.852;2022-09-27T00:14:37;98217.72;;;8.79;100.00
21728;BME280;11026;50.560;17.852;2022-09-27T00:19:35;98206.34;;;8.62;100.00
21728;BME280;11026;50.560;17.852;2022-09-27T00:22:02;98202.13;;;8.60;100.00
21728;BME280;11026;50.560;17.852;2022-09-27T00:24:29;98197.88;;;8.57;100.00
21728;BME280;11026;50.560;17.852;2022-09-27T00:26:57;98196.03;;;8.44;100.00
21728;BME280;11026;50.560;17.852;2022-09-27T00:29:24;98182.06;;;8.42;100.00
21728;BME280;11026;50.560;17.852;2022-09-27T00:31:51;98175.34;;;8.36;100.00
21728;BME280;11026;50.560;17.852;2022-09-27T00:34:22;98186.59;;;8.24;100.00
21728;BME280;11026;50.560;17.852;2022-09-27T00:36:50;98173.22;;;8.58;100.00
21728;BME280;11026;50.560;17.852;2022-09-27T00:39:31;98176.03;;;8.55;100.00
21728;BME280;11026;50.560;17.852;2022-09-27T00:55:48;98153.25;;;8.23;100.00
21728;BME280;11026;50.560;17.852;2022-09-27T00:58:24;98149.19;;;8.17;100.00
21728;BME280;11026;50.560;17.852;2022-09-27T01:00:59;98148.34;;;8.17;100.00
21728;BME280;11026;50.560;17.852;2022-09-27T01:03:31;98144.19;;;8.12;100.00
21728;BME280;11026;50.560;17.852;2022-09-27T01:05:59;98137.28;;;8.26;100.00
21728;BME280;11026;50.560;17.852;2022-09-27T01:08:27;98128.53;;;8.25;100.00
21728;BME280;11026;50.560;17.852;2022-09-27T01:11:02;98127.75;;;8.23;100.00
21728;BME280;11026;50.560;17.852;2022-09-27T01:13:34;98122.28;;;8.12;100.00
21728;BME280;11026;50.560;17.852;2022-09-27T01:16:17;98121.75;;;8.21;100.00
21728;BME280;11026;50.560;17.852;2022-09-27T01:37:14;98090.38;;;8.32;100.00
21728;BME280;11026;50.560;17.852;2022-09-27T01:42:36;98090.00;;;8.08;100.00
21728;BME280;11026;50.560;17.852;2022-09-27T01:47:37;98078.38;;;8.27;100.00
21728;BME280;11026;50.560;17.852;2022-09-27T01:50:13;98069.91;;;8.22;100.00
21728;BME280;11026;50.560;17.852;2022-09-27T01:52:50;98073.75;;;8.16;100.00
21728;BME280;11026;50.560;17.852;2022-09-27T01:55:22;98078.09;;;8.31;100.00
21728;BME280;11026;50.560;17.852;2022-09-27T01:57:53;98073.50;;;8.35;100.00
21728;BME280;11026;50.560;17.852;2022-09-27T02:00:21;98068.94;;;8.38;100.00
21728;BME280;11026;50.560;17.852;2022-09-27T02:02:53;98063.34;;;8.29;100.00
21728;BME280;11026;50.560;17.852;2022-09-27T02:05:25;98058.09;;;8.29;100.00
21728;BME280;11026;50.560;17.852;2022-09-27T02:08:00;98058.94;;;8.29;100.00
21728;BME280;11026;50.560;17.852;2022-09-27T02:10:30;98059.09;;;8.26;100.00
21728;BME280;11026;50.560;17.852;2022-09-27T02:18:22;98049.16;;;8.16;100.00
21728;BME280;11026;50.560;17.852;2022-09-27T02:20:54;98049.38;;;8.12;100.00
21728;BME280;11026;50.560;17.852;2022-09-27T02:23:38;98045.63;;;8.17;100.00
21728;BME280;11026;50.560;17.852;2022-09-27T02:26:19;98028.47;;;8.09;100.00
21728;BME280;11026;50.560;17.852;2022-09-27T02:28:56;98027.34;;;8.13;100.00
21728;BME280;11026;50.560;17.852;2022-09-27T02:31:24;98029.41;;;8.08;100.00
21728;BME280;11026;50.560;17.852;2022-09-27T02:33:57;98026.34;;;8.16;100.00
21728;BME280;11026;50.560;17.852;2022-09-27T02:36:27;98021.31;;;8.11;100.00
21728;BME280;11026;50.560;17.852;2022-09-27T02:38:57;98014.53;;;8.07;100.00
21728;BME280;11026;50.560;17.852;2022-09-27T02:41:25;98019.38;;;7.99;100.00
21728;BME280;11026;50.560;17.852;2022-09-27T02:49:23;98027.91;;;8.04;100.00
21728;BME280;11026;50.560;17.852;2022-09-27T02:52:03;98019.31;;;8.01;100.00
21728;BME280;11026;50.560;17.852;2022-09-27T02:58:01;98012.44;;;7.98;100.00
21728;BME280;11026;50.560;17.852;2022-09-27T03:00:40;98018.47;;;8.00;100.00
21728;BME280;11026;50.560;17.852;2022-09-27T03:11:03;98008.19;;;7.96;100.00
21728;BME280;11026;50.560;17.852;2022-09-27T03:19:19;97991.09;;;8.03;100.00
21728;BME280;11026;50.560;17.852;2022-09-27T03:21:53;97994.41;;;8.06;100.00
21728;BME280;11026;50.560;17.852;2022-09-27T03:26:59;97994.06;;;8.12;100.00
21728;BME280;11026;50.560;17.852;2022-09-27T03:29:27;97988.88;;;8.11;100.00
21728;BME280;11026;50.560;17.852;2022-09-27T03:32:01;97993.50;;;8.22;100.00
21728;BME280;11026;50.560;17.852;2022-09-27T03:37:10;97975.66;;;8.27;100.00
21728;BME280;11026;50.560;17.852;2022-09-27T03:42:10;97965.09;;;8.27;100.00
21728;BME280;11026;50.560;17.852;2022-09-27T03:44:38;97967.66;;;8.28;100.00
21728;BME280;11026;50.560;17.852;2022-09-27T03:47:14;97963.41;;;8.26;100.00
21728;BME280;11026;50.560;17.852;2022-09-27T03:52:18;97956.63;;;8.22;100.00
21728;BME280;11026;50.560;17.852;2022-09-27T03:54:45;97958.31;;;8.23;100.00
21728;BME280;11026;50.560;17.852;2022-09-27T03:57:14;97962.00;;;8.20;100.00
21728;BME280;11026;50.560;17.852;2022-09-27T03:59:42;97949.50;;;8.24;100.00
21728;BME280;11026;50.560;17.852;2022-09-27T04:02:10;97945.25;;;8.21;100.00
21728;BME280;11026;50.560;17.852;2022-09-27T04:04:36;97946.78;;;8.25;100.00
21728;BME280;11026;50.560;17.852;2022-09-27T04:09:37;97948.00;;;8.20;100.00
21728;BME280;11026;50.560;17.852;2022-09-27T04:12:21;97944.03;;;8.27;100.00
21728;BME280;11026;50.560;17.852;2022-09-27T04:14:48;97939.50;;;8.14;100.00
21728;BME280;11026;50.560;17.852;2022-09-27T04:17:15;97935.41;;;8.25;100.00
21728;BME280;11026;50.560;17.852;2022-09-27T04:19:42;97937.34;;;8.21;100.00
21728;BME280;11026;50.560;17.852;2022-09-27T04:25:17;97928.06;;;8.30;100.00
21728;BME280;11026;50.560;17.852;2022-09-27T04:27:51;97930.50;;;8.33;100.00
21728;BME280;11026;50.560;17.852;2022-09-27T04:30:29;97927.66;;;8.22;100.00
21728;BME280;11026;50.560;17.852;2022-09-27T04:32:56;97929.47;;;8.21;100.00
21728;BME280;11026;50.560;17.852;2022-09-27T04:35:25;97929.19;;;8.26;100.00
21728;BME280;11026;50.560;17.852;2022-09-27T04:38:23;97928.63;;;8.21;100.00
21728;BME280;11026;50.560;17.852;2022-09-27T04:40:50;97928.63;;;8.21;100.00
21728;BME280;11026;50.560;17.852;2022-09-27T04:43:19;97930.47;;;8.19;100.00
21728;BME280;11026;50.560;17.852;2022-09-27T04:45:46;97930.88;;;8.27;100.00
21728;BME280;11026;50.560;17.852;2022-09-27T04:48:13;97926.72;;;8.23;100.00
21728;BME280;11026;50.560;17.852;2022-09-27T04:50:54;97918.53;;;8.27;100.00
21728;BME280;11026;50.560;17.852;2022-09-27T04:55:59;97916.38;;;8.34;100.00
21728;BME280;11026;50.560;17.852;2022-09-27T04:58:32;97918.00;;;8.36;100.00
21728;BME280;11026;50.560;17.852;2022-09-27T05:00:59;97919.91;;;8.49;100.00
21728;BME280;11026;50.560;17.852;2022-09-27T05:03:30;97920.88;;;8.48;100.00
21728;BME280;11026;50.560;17.852;2022-09-27T05:05:57;97922.38;;;8.52;100.00
21728;BME280;11026;50.560;17.852;2022-09-27T05:08:25;97919.28;;;8.59;100.00
21728;BME280;11026;50.560;17.852;2022-09-27T05:10:52;97921.97;;;8.58;100.00
21728;BME280;11026;50.560;17.852;2022-09-27T05:13:25;97928.41;;;8.68;100.00
21728;BME280;11026;50.560;17.852;2022-09-27T05:15:54;97925.00;;;8.66;100.00
21728;BME280;11026;50.560;17.852;2022-09-27T05:18:28;97930.19;;;8.68;100.00
21728;BME280;11026;50.560;17.852;2022-09-27T05:20:55;97926.03;;;8.92;100.00
21728;BME280;11026;50.560;17.852;2022-09-27T05:23:36;97922.53;;;8.92;100.00
21728;BME280;11026;50.560;17.852;2022-09-27T05:26:04;97924.78;;;8.98;100.00
21728;BME280;11026;50.560;17.852;2022-09-27T05:28:32;97923.34;;;9.06;100.00
21728;BME280;11026;50.560;17.852;2022-09-27T05:31:01;97917.31;;;9.19;100.00
21728;BME280;11026;50.560;17.852;2022-09-27T05:33:28;97914.56;;;9.20;100.00
21728;BME280;11026;50.560;17.852;2022-09-27T05:36:02;97903.91;;;9.22;100.00
21728;BME280;11026;50.560;17.852;2022-09-27T05:38:36;97907.66;;;9.32;100.00
21728;BME280;11026;50.560;17.852;2022-09-27T05:43:36;97900.38;;;9.35;100.00
21728;BME280;11026;50.560;17.852;2022-09-27T05:46:03;97895.41;;;9.31;100.00
21728;BME280;11026;50.560;17.852;2022-09-27T05:48:31;97902.75;;;9.26;100.00
21728;BME280;11026;50.560;17.852;2022-09-27T05:50:58;97896.09;;;9.20;100.00
21728;BME280;11026;50.560;17.852;2022-09-27T05:53:24;97899.56;;;9.21;100.00
21728;BME280;11026;50.560;17.852;2022-09-27T05:55:51;97900.41;;;9.21;100.00
21728;BME280;11026;50.560;17.852;2022-09-27T05:58:18;97899.22;;;9.13;100.00
21728;BME280;11026;50.560;17.852;2022-09-27T06:00:46;97902.31;;;9.19;100.00
21728;BME280;11026;50.560;17.852;2022-09-27T06:03:13;97902.63;;;9.15;100.00
21728;BME280;11026;50.560;17.852;2022-09-27T06:05:41;97902.63;;;9.15;100.00
21728;BME280;11026;50.560;17.852;2022-09-27T06:08:12;97900.84;;;9.15;100.00
21728;BME280;11026;50.560;17.852;2022-09-27T06:10:41;97904.13;;;9.19;100.00
21728;BME280;11026;50.560;17.852;2022-09-27T06:13:14;97907.00;;;9.28;100.00
21728;BME280;11026;50.560;17.852;2022-09-27T06:18:33;97893.00;;;9.41;100.00
21728;BME280;11026;50.560;17.852;2022-09-27T06:21:00;97896.69;;;9.38;100.00
21728;BME280;11026;50.560;17.852;2022-09-27T06:23:34;97904.22;;;9.44;100.00
21728;BME280;11026;50.560;17.852;2022-09-27T06:26:08;97899.47;;;9.49;100.00
21728;BME280;11026;50.560;17.852;2022-09-27T06:28:36;97894.44;;;9.59;100.00
21728;BME280;11026;50.560;17.852;2022-09-27T06:31:06;97887.91;;;9.65;100.00
21728;BME280;11026;50.560;17.852;2022-09-27T06:33:39;97886.03;;;9.67;100.00
21728;BME280;11026;50.560;17.852;2022-09-27T06:36:06;97881.50;;;9.81;100.00
21728;BME280;11026;50.560;17.852;2022-09-27T06:38:34;97880.16;;;9.89;100.00
21728;BME280;11026;50.560;17.852;2022-09-27T06:41:03;97876.97;;;9.96;100.00
21728;BME280;11026;50.560;17.852;2022-09-27T06:43:34;97880.91;;;10.03;100.00
21728;BME280;11026;50.560;17.852;2022-09-27T06:46:02;97875.00;;;10.13;100.00
21728;BME280;11026;50.560;17.852;2022-09-27T06:48:40;97871.53;;;10.25;100.00
21728;BME280;11026;50.560;17.852;2022-09-27T06:56:11;97898.06;;;10.36;100.00
21728;BME280;11026;50.560;17.852;2022-09-27T06:58:38;97884.97;;;10.47;100.00
21728;BME280;11026;50.560;17.852;2022-09-27T07:04:18;97899.22;;;10.32;100.00
21728;BME280;11026;50.560;17.852;2022-09-27T07:06:45;97903.88;;;10.41;100.00
21728;BME280;11026;50.560;17.852;2022-09-27T07:09:18;97899.88;;;10.48;100.00
21728;BME280;11026;50.560;17.852;2022-09-27T07:11:46;97893.53;;;10.51;100.00
21728;BME280;11026;50.560;17.852;2022-09-27T07:16:46;97900.72;;;10.62;100.00
21728;BME280;11026;50.560;17.852;2022-09-27T07:19:14;97893.00;;;10.58;100.00
21728;BME280;11026;50.560;17.852;2022-09-27T07:21:41;97894.03;;;10.69;100.00
21728;BME280;11026;50.560;17.852;2022-09-27T07:24:15;97898.13;;;10.73;100.00
21728;BME280;11026;50.560;17.852;2022-09-27T07:26:42;97886.09;;;10.81;100.00
21728;BME280;11026;50.560;17.852;2022-09-27T07:29:10;97883.13;;;10.86;100.00
21728;BME280;11026;50.560;17.852;2022-09-27T07:31:38;97882.44;;;10.95;100.00
21728;BME280;11026;50.560;17.852;2022-09-27T07:34:05;97877.38;;;10.92;100.00
21728;BME280;11026;50.560;17.852;2022-09-27T07:36:31;97882.34;;;10.97;100.00
21728;BME280;11026;50.560;17.852;2022-09-27T07:38:59;97882.22;;;10.98;100.00
21728;BME280;11026;50.560;17.852;2022-09-27T07:41:28;97881.63;;;11.19;100.00
21728;BME280;11026;50.560;17.852;2022-09-27T07:44:01;97883.84;;;11.25;100.00
21728;BME280;11026;50.560;17.852;2022-09-27T07:46:28;97878.09;;;11.31;100.00
21728;BME280;11026;50.560;17.852;2022-09-27T07:48:55;97871.34;;;11.27;100.00
21728;BME280;11026;50.560;17.852;2022-09-27T07:51:22;97881.50;;;11.33;100.00
21728;BME280;11026;50.560;17.852;2022-09-27T07:53:50;97874.66;;;11.42;100.00
21728;BME280;11026;50.560;17.852;2022-09-27T07:56:19;97888.63;;;11.44;100.00
21728;BME280;11026;50.560;17.852;2022-09-27T07:58:48;97877.66;;;11.61;100.00
21728;BME280;11026;50.560;17.852;2022-09-27T08:01:18;97882.72;;;11.64;100.00
21728;BME280;11026;50.560;17.852;2022-09-27T08:03:46;97883.34;;;11.79;100.00
21728;BME280;11026;50.560;17.852;2022-09-27T08:06:12;97886.13;;;11.77;100.00
21728;BME280;11026;50.560;17.852;2022-09-27T08:11:13;97865.94;;;11.88;100.00
21728;BME280;11026;50.560;17.852;2022-09-27T08:13:41;97871.63;;;11.94;100.00
21728;BME280;11026;50.560;17.852;2022-09-27T08:16:18;97870.94;;;12.03;100.00
21728;BME280;11026;50.560;17.852;2022-09-27T08:18:46;97874.78;;;11.99;100.00
21728;BME280;11026;50.560;17.852;2022-09-27T08:21:18;97867.09;;;12.07;100.00
21728;BME280;11026;50.560;17.852;2022-09-27T08:23:46;97872.53;;;12.17;100.00
21728;BME280;11026;50.560;17.852;2022-09-27T08:26:14;97873.53;;;12.27;100.00
21728;BME280;11026;50.560;17.852;2022-09-27T08:28:42;97878.72;;;12.40;100.00
21728;BME280;11026;50.560;17.852;2022-09-27T08:31:09;97871.97;;;12.59;100.00
21728;BME280;11026;50.560;17.852;2022-09-27T08:33:36;97877.50;;;12.78;100.00
21728;BME280;11026;50.560;17.852;2022-09-27T08:36:10;97873.78;;;12.69;100.00
21728;BME280;11026;50.560;17.852;2022-09-27T08:38:38;97873.44;;;12.51;100.00
21728;BME280;11026;50.560;17.852;2022-09-27T08:41:08;97865.47;;;12.51;100.00
21728;BME280;11026;50.560;17.852;2022-09-27T08:43:43;97864.97;;;12.58;100.00
21728;BME280;11026;50.560;17.852;2022-09-27T08:51:34;97866.28;;;12.74;100.00
21728;BME280;11026;50.560;17.852;2022-09-27T08:54:07;97864.63;;;12.85;100.00
21728;BME280;11026;50.560;17.852;2022-09-27T08:56:37;97863.16;;;12.92;100.00
21728;BME280;11026;50.560;17.852;2022-09-27T08:59:14;97853.84;;;13.09;100.00
21728;BME280;11026;50.560;17.852;2022-09-27T09:01:50;97852.16;;;13.08;100.00
21728;BME280;11026;50.560;17.852;2022-09-27T09:12:49;97842.50;;;13.07;100.00
21728;BME280;11026;50.560;17.852;2022-09-27T09:15:25;97843.13;;;12.99;100.00
21728;BME280;11026;50.560;17.852;2022-09-27T09:18:14;97844.56;;;13.03;100.00
21728;BME280;11026;50.560;17.852;2022-09-27T09:29:16;97841.75;;;13.27;100.00
21728;BME280;11026;50.560;17.852;2022-09-27T09:34:38;97843.22;;;13.09;100.00
21728;BME280;11026;50.560;17.852;2022-09-27T09:39:43;97840.69;;;13.07;100.00
21728;BME280;11026;50.560;17.852;2022-09-27T09:44:45;97838.38;;;13.02;100.00
21728;BME280;11026;50.560;17.852;2022-09-27T09:47:23;97821.28;;;13.07;100.00
21728;BME280;11026;50.560;17.852;2022-09-27T09:49:54;97818.72;;;13.05;100.00
21728;BME280;11026;50.560;17.852;2022-09-27T09:52:28;97821.59;;;13.13;100.00
21728;BME280;11026;50.560;17.852;2022-09-27T09:55:05;97816.06;;;13.05;100.00
21728;BME280;11026;50.560;17.852;2022-09-27T09:58:20;97808.25;;;13.03;100.00
21728;BME280;11026;50.560;17.852;2022-09-27T10:00:21;97815.66;;;13.21;100.00
21728;BME280;11026;50.560;17.852;2022-09-27T10:02:48;97810.59;;;13.18;100.00
21728;BME280;11026;50.560;17.852;2022-09-27T10:05:18;97811.44;;;13.29;100.00
21728;BME280;11026;50.560;17.852;2022-09-27T10:07:47;97814.91;;;13.41;100.00
21728;BME280;11026;50.560;17.852;2022-09-27T10:10:23;97818.91;;;13.36;100.00
21728;BME280;11026;50.560;17.852;2022-09-27T10:12:50;97814.59;;;13.35;100.00
21728;BME280;11026;50.560;17.852;2022-09-27T10:15:21;97811.03;;;13.45;100.00
21728;BME280;11026;50.560;17.852;2022-09-27T10:17:49;97804.47;;;13.49;100.00
21728;BME280;11026;50.560;17.852;2022-09-27T10:20:30;97808.47;;;13.55;100.00
21728;BME280;11026;50.560;17.852;2022-09-27T10:23:03;97809.88;;;13.59;100.00
21728;BME280;11026;50.560;17.852;2022-09-27T10:25:44;97808.91;;;13.60;100.00
21728;BME280;11026;50.560;17.852;2022-09-27T10:31:19;97811.38;;;13.52;100.00
21728;BME280;11026;50.560;17.852;2022-09-27T10:33:56;97810.53;;;13.51;100.00
21728;BME280;11026;50.560;17.852;2022-09-27T10:39:21;97808.19;;;13.26;100.00
21728;BME280;11026;50.560;17.852;2022-09-27T10:41:50;97809.63;;;13.30;100.00
21728;BME280;11026;50.560;17.852;2022-09-27T10:44:27;97809.91;;;13.27;100.00
21728;BME280;11026;50.560;17.852;2022-09-27T10:46:57;97808.28;;;13.36;100.00
21728;BME280;11026;50.560;17.852;2022-09-27T10:49:26;97803.38;;;13.31;100.00
21728;BME280;11026;50.560;17.852;2022-09-27T10:51:59;97806.63;;;13.35;100.00
21728;BME280;11026;50.560;17.852;2022-09-27T10:57:27;97813.25;;;13.29;100.00
21728;BME280;11026;50.560;17.852;2022-09-27T10:59:57;97800.59;;;13.21;100.00
21728;BME280;11026;50.560;17.852;2022-09-27T11:02:35;97801.34;;;13.23;100.00
21728;BME280;11026;50.560;17.852;2022-09-27T11:05:11;97807.94;;;13.18;100.00
21728;BME280;11026;50.560;17.852;2022-09-27T11:07:48;97808.34;;;13.13;100.00
21728;BME280;11026;50.560;17.852;2022-09-27T11:10:26;97799.31;;;13.04;100.00
21728;BME280;11026;50.560;17.852;2022-09-27T11:13:17;97802.81;;;12.94;100.00
21728;BME280;11026;50.560;17.852;2022-09-27T11:32:09;97795.69;;;13.05;100.00
21728;BME280;11026;50.560;17.852;2022-09-27T11:39:43;97801.06;;;12.83;100.00
21728;BME280;11026;50.560;17.852;2022-09-27T11:42:27;97794.53;;;12.87;100.00
21728;BME280;11026;50.560;17.852;2022-09-27T11:45:09;97793.38;;;12.69;100.00
21728;BME280;11026;50.560;17.852;2022-09-27T11:58:29;97795.56;;;12.41;100.00
21728;BME280;11026;50.560;17.852;2022-09-27T12:04:15;97793.13;;;12.27;100.00
21728;BME280;11026;50.560;17.852;2022-09-27T12:06:53;97787.13;;;12.14;100.00
21728;BME280;11026;50.560;17.852;2022-09-27T12:09:26;97795.19;;;12.12;100.00
21728;BME280;11026;50.560;17.852;2022-09-27T12:12:04;97785.91;;;12.29;100.00
21728;BME280;11026;50.560;17.852;2022-09-27T12:14:38;97788.56;;;12.40;100.00
21728;BME280;11026;50.560;17.852;2022-09-27T12:17:11;97791.00;;;12.43;100.00
21728;BME280;11026;50.560;17.852;2022-09-27T12:19:42;97793.38;;;12.58;100.00
21728;BME280;11026;50.560;17.852;2022-09-27T12:22:11;97790.56;;;12.70;100.00
21728;BME280;11026;50.560;17.852;2022-09-27T12:24:41;97799.13;;;12.63;100.00
21728;BME280;11026;50.560;17.852;2022-09-27T12:30:31;97799.31;;;13.04;100.00
21728;BME280;11026;50.560;17.852;2022-09-27T12:33:08;97795.50;;;12.86;100.00
21728;BME280;11026;50.560;17.852;2022-09-27T12:38:34;97789.88;;;12.68;100.00
21728;BME280;11026;50.560;17.852;2022-09-27T12:41:04;97793.22;;;12.70;100.00
21728;BME280;11026;50.560;17.852;2022-09-27T12:43:45;97783.97;;;12.53;100.00
21728;BME280;11026;50.560;17.852;2022-09-27T12:52:19;97801.31;;;12.69;100.00
21728;BME280;11026;50.560;17.852;2022-09-27T12:54:53;97801.94;;;12.39;100.00
21728;BME280;11026;50.560;17.852;2022-09-27T13:00:08;97795.19;;;12.57;100.00
21728;BME280;11026;50.560;17.852;2022-09-27T13:16:03;97788.66;;;12.72;100.00
21728;BME280;11026;50.560;17.852;2022-09-27T13:23:54;97790.38;;;13.05;100.00
21728;BME280;11026;50.560;17.852;2022-09-27T13:26:23;97787.47;;;13.09;100.00
21728;BME280;11026;50.560;17.852;2022-09-27T13:29:43;97790.06;;;12.99;100.00
21728;BME280;11026;50.560;17.852;2022-09-27T13:32:19;97791.84;;;12.98;100.00
21728;BME280;11026;50.560;17.852;2022-09-27T13:37:43;97792.81;;;12.97;100.00
21728;BME280;11026;50.560;17.852;2022-09-27T13:47:59;97793.81;;;12.85;100.00
21728;BME280;11026;50.560;17.852;2022-09-27T14:01:28;97791.19;;;12.74;100.00
21728;BME280;11026;50.560;17.852;2022-09-27T14:04:30;97800.47;;;12.68;100.00
21728;BME280;11026;50.560;17.852;2022-09-27T14:06:52;97801.78;;;12.74;100.00
21728;BME280;11026;50.560;17.852;2022-09-27T14:09:28;97799.03;;;12.75;100.00
21728;BME280;11026;50.560;17.852;2022-09-27T14:11:59;97796.94;;;12.90;100.00
21728;BME280;11026;50.560;17.852;2022-09-27T14:14:30;97790.75;;;13.01;100.00
21728;BME280;11026;50.560;17.852;2022-09-27T14:16:59;97793.41;;;13.01;100.00
21728;BME280;11026;50.560;17.852;2022-09-27T14:19:32;97791.81;;;13.10;100.00
21728;BME280;11026;50.560;17.852;2022-09-27T14:22:00;97784.22;;;13.05;100.00
21728;BME280;11026;50.560;17.852;2022-09-27T14:24:32;97779.50;;;13.09;100.00
21728;BME280;11026;50.560;17.852;2022-09-27T14:29:41;97776.63;;;13.23;100.00
21728;BME280;11026;50.560;17.852;2022-09-27T14:32:14;97769.72;;;13.09;100.00
21728;BME280;11026;50.560;17.852;2022-09-27T14:34:43;97763.34;;;13.12;100.00
21728;BME280;11026;50.560;17.852;2022-09-27T14:37:22;97753.78;;;13.20;100.00
21728;BME280;11026;50.560;17.852;2022-09-27T14:39:53;97749.44;;;13.19;100.00
21728;BME280;11026;50.560;17.852;2022-09-27T14:42:21;97762.81;;;13.18;100.00
21728;BME280;11026;50.560;17.852;2022-09-27T14:44:49;97766.84;;;13.12;100.00
21728;BME280;11026;50.560;17.852;2022-09-27T14:47:21;97768.81;;;12.99;100.00
21728;BME280;11026;50.560;17.852;2022-09-27T14:49:51;97771.31;;;13.12;100.00
21728;BME280;11026;50.560;17.852;2022-09-27T14:52:20;97764.25;;;13.33;100.00
21728;BME280;11026;50.560;17.852;2022-09-27T14:57:32;97765.72;;;13.58;100.00
21728;BME280;11026;50.560;17.852;2022-09-27T15:00:00;97760.44;;;13.68;100.00
21728;BME280;11026;50.560;17.852;2022-09-27T15:02:35;97764.03;;;13.78;100.00
21728;BME280;11026;50.560;17.852;2022-09-27T15:05:02;97751.63;;;13.88;100.00
21728;BME280;11026;50.560;17.852;2022-09-27T15:07:35;97758.16;;;13.84;100.00
21728;BME280;11026;50.560;17.852;2022-09-27T15:10:16;97761.06;;;13.81;100.00
21728;BME280;11026;50.560;17.852;2022-09-27T15:12:46;97766.69;;;13.78;100.00
21728;BME280;11026;50.560;17.852;2022-09-27T15:15:15;97770.22;;;13.67;100.00
21728;BME280;11026;50.560;17.852;2022-09-27T15:17:45;97770.88;;;13.60;100.00
21728;BME280;11026;50.560;17.852;2022-09-27T15:20:20;97770.88;;;13.39;100.00
21728;BME280;11026;50.560;17.852;2022-09-27T15:22:49;97770.53;;;13.32;100.00
21728;BME280;11026;50.560;17.852;2022-09-27T15:30:42;97776.72;;;13.10;100.00
21728;BME280;11026;50.560;17.852;2022-09-27T15:33:19;97778.91;;;13.05;100.00
21728;BME280;11026;50.560;17.852;2022-09-27T15:35:53;97788.72;;;12.93;100.00
21728;BME280;11026;50.560;17.852;2022-09-27T15:38:33;97785.00;;;12.85;100.00
21728;BME280;11026;50.560;17.852;2022-09-27T15:41:02;97787.56;;;12.75;100.00
21728;BME280;11026;50.560;17.852;2022-09-27T15:43:32;97787.91;;;12.70;100.00
21728;BME280;11026;50.560;17.852;2022-09-27T15:46:03;97795.03;;;12.70;100.00
21728;BME280;11026;50.560;17.852;2022-09-27T15:48:33;97791.19;;;12.74;100.00
21728;BME280;11026;50.560;17.852;2022-09-27T15:53:52;97790.47;;;12.61;100.00
21728;BME280;11026;50.560;17.852;2022-09-27T15:56:19;97782.53;;;12.61;100.00
21728;BME280;11026;50.560;17.852;2022-09-27T15:58:46;97791.91;;;12.65;100.00
21728;BME280;11026;50.560;17.852;2022-09-27T16:01:15;97788.53;;;12.63;100.00
21728;BME280;11026;50.560;17.852;2022-09-27T16:03:43;97790.97;;;12.54;100.00
21728;BME280;11026;50.560;17.852;2022-09-27T16:06:10;97794.34;;;12.57;100.00
21728;BME280;11026;50.560;17.852;2022-09-27T16:08:39;97794.81;;;12.50;100.00
21728;BME280;11026;50.560;17.852;2022-09-27T16:11:14;97794.22;;;12.58;100.00
21728;BME280;11026;50.560;17.852;2022-09-27T16:13:49;97803.28;;;12.55;100.00
21728;BME280;11026;50.560;17.852;2022-09-27T16:16:23;97802.53;;;12.53;100.00
21728;BME280;11026;50.560;17.852;2022-09-27T16:18:50;97813.00;;;12.55;100.00
21728;BME280;11026;50.560;17.852;2022-09-27T16:21:18;97805.19;;;12.53;100.00
21728;BME280;11026;50.560;17.852;2022-09-27T16:23:47;97807.38;;;12.48;100.00
21728;BME280;11026;50.560;17.852;2022-09-27T16:26:17;97814.25;;;12.40;100.00
21728;BME280;11026;50.560;17.852;2022-09-27T16:28:45;97804.47;;;12.40;100.00
21728;BME280;11026;50.560;17.852;2022-09-27T16:31:14;97808.34;;;12.36;100.00
21728;BME280;11026;50.560;17.852;2022-09-27T16:33:43;97815.47;;;12.36;100.00
21728;BME280;11026;50.560;17.852;2022-09-27T16:36:13;97820.16;;;12.32;100.00
21728;BME280;11026;50.560;17.852;2022-09-27T16:38:48;97822.06;;;12.30;100.00
21728;BME280;11026;50.560;17.852;2022-09-27T16:41:16;97822.66;;;12.34;100.00
21728;BME280;11026;50.560;17.852;2022-09-27T16:43:43;97810.97;;;12.25;100.00
21728;BME280;11026;50.560;17.852;2022-09-27T16:46:13;97805.69;;;12.25;100.00
21728;BME280;11026;50.560;17.852;2022-09-27T16:48:45;97803.13;;;12.23;100.00
21728;BME280;11026;50.560;17.852;2022-09-27T16:51:13;97802.28;;;12.23;100.00
21728;BME280;11026;50.560;17.852;2022-09-27T16:54:01;97796.75;;;12.15;100.00
21728;BME280;11026;50.560;17.852;2022-09-27T16:56:28;97798.94;;;12.21;100.00
21728;BME280;11026;50.560;17.852;2022-09-27T16:58:58;97797.34;;;12.07;100.00
21728;BME280;11026;50.560;17.852;2022-09-27T17:01:25;97805.19;;;12.20;100.00
21728;BME280;11026;50.560;17.852;2022-09-27T17:03:55;97805.44;;;12.28;100.00
21728;BME280;11026;50.560;17.852;2022-09-27T17:06:23;97807.22;;;12.05;100.00
21728;BME280;11026;50.560;17.852;2022-09-27T17:08:50;97805.31;;;12.18;100.00
21728;BME280;11026;50.560;17.852;2022-09-27T17:11:18;97816.75;;;12.19;100.00
21728;BME280;11026;50.560;17.852;2022-09-27T17:13:46;97818.47;;;12.20;100.00